Estherville, Iowa
Current Conditions -  °F | °C
As of 6:52 AM on Thursday 30 Oct 2014 (Local Time) from KEST Reporting Station
Overcast Overcast  
Wind Chill: 40°   Ceiling: 9500
Heat Index: 40°   Visibility: 10mi
Dew Point: 35°   Wind: 3mph
Humidity: 83%   Direction: 110°ESE
Pressure: 30"   Gusts: NA
Location:  43.4°N, 94.84°W
Report Text: KEST 301152Z AUTO 11003KT 10SM OVC095 04/02 A3000 RMK AO2 SLP168 T00440017 10061 20044 53001
Loading
Personal Weather Stations






























Interactive Weather Map New forecast layout! Learn more

10-Day Weather Forecast

Advertisements
Track Severe Weather on mobile